createdAt,value
2023-08-17T00:00:14.022Z,859.57
2023-08-17T00:01:14.060Z,859.55
2023-08-17T00:02:14.001Z,859.52
2023-08-17T00:03:14.036Z,859.52
2023-08-17T00:04:14.008Z,859.47
2023-08-17T00:05:13.970Z,859.45
2023-08-17T00:06:13.959Z,859.43
2023-08-17T00:07:13.967Z,859.44
2023-08-17T00:08:13.934Z,859.43
2023-08-17T00:09:13.928Z,859.43
2023-08-17T00:10:13.914Z,859.41
2023-08-17T00:11:13.913Z,859.40
2023-08-17T00:12:13.919Z,859.39
2023-08-17T00:13:13.894Z,859.40
2023-08-17T00:14:13.880Z,859.41
2023-08-17T00:15:13.863Z,859.42
2023-08-17T00:16:13.881Z,859.40
2023-08-17T00:17:13.839Z,859.41
2023-08-17T00:18:13.848Z,859.42
2023-08-17T00:19:13.827Z,859.38
2023-08-17T00:20:13.802Z,859.41
2023-08-17T00:21:13.797Z,859.37
2023-08-17T00:22:13.784Z,859.37
2023-08-17T00:23:13.769Z,859.32
2023-08-17T00:24:13.776Z,859.37
2023-08-17T00:25:13.748Z,859.37
2023-08-17T00:26:13.744Z,859.39
2023-08-17T00:27:13.739Z,859.37
2023-08-17T00:28:13.766Z,859.39
2023-08-17T00:29:13.700Z,859.37
2023-08-17T00:30:13.690Z,859.42
2023-08-17T00:31:13.786Z,859.39
2023-08-17T00:32:13.712Z,859.42
2023-08-17T00:33:13.702Z,859.40
2023-08-17T00:34:13.646Z,859.37
2023-08-17T00:35:13.631Z,859.36
2023-08-17T00:36:13.622Z,859.33
2023-08-17T00:37:13.613Z,859.32
2023-08-17T00:38:13.651Z,859.33
2023-08-17T00:39:13.592Z,859.35
2023-08-17T00:40:13.584Z,859.34
2023-08-17T00:41:13.569Z,859.40
2023-08-17T00:42:13.559Z,859.38
2023-08-17T00:43:13.549Z,859.42
2023-08-17T00:44:13.572Z,859.42
2023-08-17T00:45:13.522Z,859.45
2023-08-17T00:46:13.595Z,859.44
2023-08-17T00:47:13.501Z,859.50
2023-08-17T00:48:13.491Z,859.50
2023-08-17T00:49:13.484Z,859.49
2023-08-17T00:50:13.488Z,859.48
2023-08-17T00:51:13.457Z,859.44
2023-08-17T00:52:13.450Z,859.41
2023-08-17T00:53:13.452Z,859.42
2023-08-17T00:54:13.431Z,859.39
2023-08-17T00:55:13.505Z,859.40
2023-08-17T00:56:13.417Z,859.35
2023-08-17T00:57:13.394Z,859.35
2023-08-17T00:58:13.385Z,859.39
2023-08-17T00:59:13.369Z,859.34
2023-08-17T01:00:13.386Z,859.33
2023-08-17T01:01:13.425Z,859.26
2023-08-17T01:02:13.337Z,859.25
2023-08-17T01:03:13.365Z,859.26
2023-08-17T01:04:13.339Z,859.25
2023-08-17T01:05:13.334Z,859.24
2023-08-17T01:06:13.295Z,859.25
2023-08-17T01:07:13.288Z,859.25
2023-08-17T01:08:13.271Z,859.21
2023-08-17T01:09:13.262Z,859.24
2023-08-17T01:10:13.277Z,859.19
2023-08-17T01:11:13.238Z,859.17
2023-08-17T01:12:13.231Z,859.21
2023-08-17T01:13:13.215Z,859.20
2023-08-17T01:14:13.223Z,859.17
2023-08-17T01:15:13.192Z,859.23
2023-08-17T01:16:13.279Z,859.17
2023-08-17T01:17:13.175Z,859.14
2023-08-17T01:18:13.162Z,859.15
2023-08-17T01:19:13.216Z,859.11
2023-08-17T01:20:13.140Z,859.11
2023-08-17T01:21:13.133Z,859.10
2023-08-17T01:22:13.136Z,859.08
2023-08-17T01:23:13.103Z,859.12
2023-08-17T01:24:13.125Z,859.09
2023-08-17T01:25:13.083Z,859.09
2023-08-17T01:26:13.089Z,859.10
2023-08-17T01:27:13.061Z,859.10
2023-08-17T01:28:13.059Z,859.10
2023-08-17T01:29:13.046Z,859.09
2023-08-17T01:30:13.047Z,859.10
2023-08-17T01:31:13.048Z,859.10
2023-08-17T01:32:13.032Z,859.12
2023-08-17T01:33:12.991Z,859.08
2023-08-17T01:34:13.000Z,859.13
2023-08-17T01:35:12.994Z,859.08
2023-08-17T01:36:12.975Z,859.05
2023-08-17T01:37:12.957Z,859.07
2023-08-17T01:38:12.953Z,859.07
2023-08-17T01:39:12.930Z,859.02
2023-08-17T01:40:12.923Z,859.03
2023-08-17T01:41:12.928Z,859.04
2023-08-17T01:42:12.905Z,859.01
2023-08-17T01:43:12.895Z,858.99
2023-08-17T01:44:12.867Z,859.01
2023-08-17T01:45:12.859Z,859.00
2023-08-17T01:46:12.871Z,859.04
2023-08-17T01:47:12.888Z,859.02
2023-08-17T01:48:12.860Z,859.03
2023-08-17T01:49:12.823Z,859.03
2023-08-17T01:50:12.847Z,859.04
2023-08-17T01:51:12.805Z,859.07
2023-08-17T01:52:12.795Z,859.05
2023-08-17T01:53:12.790Z,859.03
2023-08-17T01:54:12.769Z,859.03
2023-08-17T01:55:12.757Z,859.05
2023-08-17T01:56:12.759Z,858.99
2023-08-17T01:57:12.730Z,859.01
2023-08-17T01:58:12.740Z,859.04
2023-08-17T01:59:12.711Z,859.04
2023-08-17T02:00:12.709Z,859.03
2023-08-17T02:01:12.710Z,859.07
2023-08-17T02:02:12.692Z,859.05
2023-08-17T02:03:12.714Z,859.01
2023-08-17T02:04:12.681Z,858.99
2023-08-17T02:05:12.656Z,859.01
2023-08-17T02:06:12.635Z,858.97
2023-08-17T02:07:12.624Z,858.93
2023-08-17T02:08:12.613Z,858.91
2023-08-17T02:09:12.609Z,858.97
2023-08-17T02:10:12.602Z,858.96
2023-08-17T02:11:12.575Z,858.95
2023-08-17T02:12:12.567Z,858.96
2023-08-17T02:13:17.852Z,859.01
2023-08-17T02:14:13.542Z,858.96
2023-08-17T02:15:12.554Z,859.02
2023-08-17T02:16:12.560Z,859.01
2023-08-17T02:17:12.508Z,859.01
2023-08-17T02:18:12.501Z,859.00
2023-08-17T02:19:12.484Z,859.01
2023-08-17T02:20:12.507Z,858.99
2023-08-17T02:21:12.484Z,859.03
2023-08-17T02:22:12.460Z,859.05
2023-08-17T02:23:12.443Z,859.04
2023-08-17T02:24:12.435Z,859.05
2023-08-17T02:25:12.452Z,859.03
2023-08-17T02:26:12.403Z,859.03
2023-08-17T02:27:12.413Z,859.07
2023-08-17T02:28:12.394Z,859.05
2023-08-17T02:29:12.376Z,859.08
2023-08-17T02:30:12.369Z,859.07
2023-08-17T02:31:12.409Z,859.09
2023-08-17T02:32:12.343Z,859.03
2023-08-17T02:33:12.338Z,859.04
2023-08-17T02:34:12.329Z,859.04
2023-08-17T02:35:12.332Z,859.00
2023-08-17T02:36:12.335Z,858.98
2023-08-17T02:37:12.300Z,859.01
2023-08-17T02:38:12.275Z,859.00
2023-08-17T02:39:12.265Z,858.99
2023-08-17T02:40:12.266Z,859.01
2023-08-17T02:41:12.257Z,859.00
2023-08-17T02:42:12.238Z,859.03
2023-08-17T02:43:12.228Z,859.03
2023-08-17T02:44:12.229Z,859.01
2023-08-17T02:45:12.199Z,859.00
2023-08-17T02:46:12.237Z,859.01
2023-08-17T02:47:12.189Z,858.96
2023-08-17T02:48:12.208Z,858.98
2023-08-17T02:49:12.175Z,858.94
2023-08-17T02:50:12.136Z,858.98
2023-08-17T02:51:12.130Z,858.93
2023-08-17T02:52:12.182Z,858.95
2023-08-17T02:53:12.109Z,858.93
2023-08-17T02:54:12.097Z,858.93
2023-08-17T02:55:12.098Z,858.93
2023-08-17T02:56:12.066Z,858.90
2023-08-17T02:57:12.078Z,858.87
2023-08-17T02:58:12.070Z,858.91
2023-08-17T02:59:12.049Z,858.88
2023-08-17T03:00:12.048Z,858.82
2023-08-17T03:01:12.021Z,858.86
2023-08-17T03:02:12.005Z,858.82
2023-08-17T03:03:12.113Z,858.83
2023-08-17T03:04:11.995Z,858.83
2023-08-17T03:05:11.996Z,858.84
2023-08-17T03:06:11.963Z,858.78
2023-08-17T03:07:11.968Z,858.81
2023-08-17T03:08:11.981Z,858.81
2023-08-17T03:09:11.948Z,858.79
2023-08-17T03:10:11.919Z,858.76
2023-08-17T03:11:11.911Z,858.78
2023-08-17T03:12:11.902Z,858.75
2023-08-17T03:13:11.885Z,858.77
2023-08-17T03:14:11.877Z,858.78
2023-08-17T03:15:11.895Z,858.77
2023-08-17T03:16:11.902Z,858.73
2023-08-17T03:17:11.844Z,858.75
2023-08-17T03:18:11.825Z,858.79
2023-08-17T03:19:11.819Z,858.80
2023-08-17T03:20:11.805Z,858.81
2023-08-17T03:21:11.815Z,858.78
2023-08-17T03:22:11.793Z,858.81
2023-08-17T03:23:11.792Z,858.81
2023-08-17T03:24:11.794Z,858.79
2023-08-17T03:25:11.756Z,858.81
2023-08-17T03:26:11.766Z,858.78
2023-08-17T03:27:11.743Z,858.76
2023-08-17T03:28:11.719Z,858.77
2023-08-17T03:29:11.723Z,858.74
2023-08-17T03:30:11.710Z,858.75
2023-08-17T03:31:11.764Z,858.74
2023-08-17T03:32:11.690Z,858.71
2023-08-17T03:33:11.704Z,858.73
2023-08-17T03:34:11.656Z,858.74
2023-08-17T03:35:11.651Z,858.69
2023-08-17T03:36:11.639Z,858.73
2023-08-17T03:37:11.626Z,858.74
2023-08-17T03:38:11.626Z,858.75
2023-08-17T03:39:11.603Z,858.75
2023-08-17T03:40:11.616Z,858.74
2023-08-17T03:41:11.606Z,858.73
2023-08-17T03:42:11.584Z,858.69
2023-08-17T03:43:11.561Z,858.67
2023-08-17T03:44:11.548Z,858.72
2023-08-17T03:45:11.563Z,858.68
2023-08-17T03:46:11.665Z,858.69
2023-08-17T03:47:11.536Z,858.71
2023-08-17T03:48:11.548Z,858.68
2023-08-17T03:49:11.508Z,858.66
2023-08-17T03:50:11.501Z,858.71
2023-08-17T03:51:11.474Z,858.69
2023-08-17T03:52:11.462Z,858.67
2023-08-17T03:53:11.468Z,858.69
2023-08-17T03:54:11.437Z,858.66
2023-08-17T03:55:11.428Z,858.67
2023-08-17T03:56:11.451Z,858.68
2023-08-17T03:57:11.409Z,858.65
2023-08-17T03:58:11.415Z,858.67
2023-08-17T03:59:11.391Z,858.67
2023-08-17T04:00:11.572Z,858.68
2023-08-17T04:01:11.369Z,858.64
2023-08-17T04:02:11.355Z,858.65
2023-08-17T04:03:11.357Z,858.70
2023-08-17T04:04:11.334Z,858.74
2023-08-17T04:05:11.328Z,858.74
2023-08-17T04:06:11.317Z,858.70
2023-08-17T04:07:11.302Z,858.67
2023-08-17T04:08:11.288Z,858.72
2023-08-17T04:09:11.302Z,858.72
2023-08-17T04:10:11.264Z,858.71
2023-08-17T04:11:11.257Z,858.72
2023-08-17T04:12:11.269Z,858.66
2023-08-17T04:13:11.235Z,858.65
2023-08-17T04:14:11.244Z,858.68
2023-08-17T04:15:11.212Z,858.69
2023-08-17T04:16:11.228Z,858.69
2023-08-17T04:17:11.215Z,858.70
2023-08-17T04:18:11.260Z,858.66
2023-08-17T04:19:11.167Z,858.66
2023-08-17T04:20:11.160Z,858.67
2023-08-17T04:21:11.150Z,858.66
2023-08-17T04:22:11.133Z,858.65
2023-08-17T04:23:11.139Z,858.66
2023-08-17T04:24:11.125Z,858.62
2023-08-17T04:25:11.112Z,858.61
2023-08-17T04:26:11.090Z,858.64
2023-08-17T04:27:11.088Z,858.63
2023-08-17T04:28:11.121Z,858.65
2023-08-17T04:29:11.062Z,858.62
2023-08-17T04:30:11.082Z,858.64
2023-08-17T04:31:11.096Z,858.64
2023-08-17T04:32:11.023Z,858.64
2023-08-17T04:33:11.008Z,858.64
2023-08-17T04:34:11.006Z,858.66
2023-08-17T04:35:11.012Z,858.61
2023-08-17T04:36:10.996Z,858.62
2023-08-17T04:37:10.965Z,858.59
2023-08-17T04:38:10.974Z,858.60
2023-08-17T04:39:10.944Z,858.61
2023-08-17T04:40:10.933Z,858.59
2023-08-17T04:41:10.938Z,858.61
2023-08-17T04:42:10.913Z,858.63
2023-08-17T04:43:10.901Z,858.62
2023-08-17T04:44:10.943Z,858.59
2023-08-17T04:45:10.889Z,858.64
2023-08-17T04:46:10.967Z,858.61
2023-08-17T04:47:10.857Z,858.64
2023-08-17T04:48:10.922Z,858.65
2023-08-17T04:49:10.836Z,858.64
2023-08-17T04:50:10.824Z,858.63
2023-08-17T04:51:10.828Z,858.66
2023-08-17T04:52:10.804Z,858.64
2023-08-17T04:53:10.818Z,858.62
2023-08-17T04:54:10.784Z,858.64
2023-08-17T04:55:10.776Z,858.67
2023-08-17T04:56:10.762Z,858.66
2023-08-17T04:57:10.751Z,858.70
2023-08-17T04:58:10.743Z,858.70
2023-08-17T04:59:10.746Z,858.70
2023-08-17T05:00:10.908Z,858.72
2023-08-17T05:01:10.728Z,858.68
2023-08-17T05:02:10.715Z,858.73
2023-08-17T05:03:17.171Z,858.74
2023-08-17T05:04:11.700Z,858.72
2023-08-17T05:05:10.660Z,858.78
2023-08-17T05:06:10.656Z,858.72
2023-08-17T05:07:10.637Z,858.76
2023-08-17T05:08:10.632Z,858.70
2023-08-17T05:09:10.617Z,858.69
2023-08-17T05:10:10.618Z,858.68
2023-08-17T05:11:10.705Z,858.65
2023-08-17T05:12:10.599Z,858.74
2023-08-17T05:13:10.600Z,858.73
2023-08-17T05:14:10.560Z,858.74
2023-08-17T05:15:11.566Z,858.73
2023-08-17T05:16:10.614Z,858.72
2023-08-17T05:17:10.527Z,858.74
2023-08-17T05:18:10.623Z,858.71
2023-08-17T05:19:10.517Z,858.67
2023-08-17T05:20:10.512Z,858.69
2023-08-17T05:21:10.489Z,858.69
2023-08-17T05:22:10.488Z,858.63
2023-08-17T05:23:10.470Z,858.66
2023-08-17T05:24:10.461Z,858.62
2023-08-17T05:25:10.460Z,858.64
2023-08-17T05:26:10.433Z,858.60
2023-08-17T05:27:10.428Z,858.63
2023-08-17T05:28:10.418Z,858.62
2023-08-17T05:29:10.393Z,858.62
2023-08-17T05:30:10.391Z,858.63
2023-08-17T05:31:10.406Z,858.66
2023-08-17T05:32:10.418Z,858.62
2023-08-17T05:33:10.385Z,858.60
2023-08-17T05:34:10.363Z,858.61
2023-08-17T05:35:10.331Z,858.61
2023-08-17T05:36:10.337Z,858.62
2023-08-17T05:37:10.322Z,858.60
2023-08-17T05:38:10.323Z,858.60
2023-08-17T05:39:10.312Z,858.63
2023-08-17T05:40:10.268Z,858.65
2023-08-17T05:41:10.266Z,858.60
2023-08-17T05:42:10.269Z,858.68
2023-08-17T05:43:10.247Z,858.69
2023-08-17T05:44:10.234Z,858.68
2023-08-17T05:45:10.230Z,858.67
2023-08-17T05:46:10.329Z,858.67
2023-08-17T05:47:10.222Z,858.64
2023-08-17T05:48:10.212Z,858.67
2023-08-17T05:49:10.186Z,858.66
2023-08-17T05:50:10.184Z,858.66
2023-08-17T05:51:10.155Z,858.61
2023-08-17T05:52:10.151Z,858.60
2023-08-17T05:53:10.147Z,858.60
2023-08-17T05:54:10.149Z,858.66
2023-08-17T05:55:10.119Z,858.61
2023-08-17T05:56:10.098Z,858.65
2023-08-17T05:57:10.085Z,858.66
2023-08-17T05:58:10.080Z,858.66
2023-08-17T05:59:10.094Z,858.63
2023-08-17T06:00:10.060Z,858.63
2023-08-17T06:01:10.139Z,858.68
2023-08-17T06:02:10.041Z,858.67
2023-08-17T06:03:10.152Z,858.66
2023-08-17T06:04:10.037Z,858.69
2023-08-17T06:05:10.022Z,858.69
2023-08-17T06:06:09.992Z,858.66
2023-08-17T06:07:09.992Z,858.62
2023-08-17T06:08:09.981Z,858.66
2023-08-17T06:09:10.023Z,858.65
2023-08-17T06:10:09.955Z,858.66
2023-08-17T06:11:09.950Z,858.66
2023-08-17T06:12:09.929Z,858.67
2023-08-17T06:13:09.924Z,858.64
2023-08-17T06:14:09.924Z,858.66
2023-08-17T06:15:09.894Z,858.66
2023-08-17T06:16:09.891Z,858.72
2023-08-17T06:17:09.879Z,858.69
2023-08-17T06:18:09.879Z,858.67
2023-08-17T06:19:09.855Z,858.70
2023-08-17T06:20:09.884Z,858.67
2023-08-17T06:21:09.839Z,858.70
2023-08-17T06:22:09.829Z,858.71
2023-08-17T06:23:09.816Z,858.77
2023-08-17T06:24:09.854Z,858.72
2023-08-17T06:25:09.786Z,858.73
2023-08-17T06:26:09.778Z,858.69
2023-08-17T06:27:09.768Z,858.70
2023-08-17T06:28:09.758Z,858.66
2023-08-17T06:29:09.749Z,858.69
2023-08-17T06:30:09.758Z,858.69
2023-08-17T06:31:09.756Z,858.67
2023-08-17T06:32:09.704Z,858.70
2023-08-17T06:33:09.700Z,858.74
2023-08-17T06:34:09.691Z,858.70
2023-08-17T06:35:09.692Z,858.73
2023-08-17T06:36:09.691Z,858.73
2023-08-17T06:37:09.662Z,858.67
2023-08-17T06:38:09.645Z,858.68
2023-08-17T06:39:09.632Z,858.65
2023-08-17T06:40:09.616Z,858.68
2023-08-17T06:41:09.625Z,858.67
2023-08-17T06:42:09.600Z,858.66
2023-08-17T06:43:09.588Z,858.67
2023-08-17T06:44:09.578Z,858.61
2023-08-17T06:45:09.587Z,858.64
2023-08-17T06:46:09.595Z,858.60
2023-08-17T06:47:09.558Z,858.61
2023-08-17T06:48:09.541Z,858.64
2023-08-17T06:49:09.526Z,858.60
2023-08-17T06:50:11.419Z,858.60
2023-08-17T06:51:09.507Z,858.62
2023-08-17T06:52:09.510Z,858.63
2023-08-17T06:53:09.471Z,858.65
2023-08-17T06:54:09.464Z,858.64
2023-08-17T06:55:09.452Z,858.61
2023-08-17T06:56:09.438Z,858.59
2023-08-17T06:57:09.443Z,858.64
2023-08-17T06:58:09.410Z,858.61
2023-08-17T06:59:09.414Z,858.66
2023-08-17T07:00:09.401Z,858.64
2023-08-17T07:01:09.413Z,858.61
2023-08-17T07:02:09.448Z,858.61
2023-08-17T07:03:09.453Z,858.60
2023-08-17T07:04:09.354Z,858.59
2023-08-17T07:05:09.352Z,858.56
2023-08-17T07:06:09.340Z,858.57
2023-08-17T07:07:09.333Z,858.55
2023-08-17T07:08:09.352Z,858.56
2023-08-17T07:09:09.353Z,858.58
2023-08-17T07:10:09.287Z,858.57
2023-08-17T07:11:09.277Z,858.60
2023-08-17T07:12:09.275Z,858.59
2023-08-17T07:13:09.261Z,858.57
2023-08-17T07:14:09.258Z,858.62
2023-08-17T07:15:09.232Z,858.58
2023-08-17T07:16:09.259Z,858.58
2023-08-17T07:17:09.258Z,858.58
2023-08-17T07:18:09.214Z,858.65
2023-08-17T07:19:09.196Z,858.62
2023-08-17T07:21:09.166Z,858.63
2023-08-17T07:22:09.158Z,858.66
2023-08-17T07:23:09.163Z,858.72
2023-08-17T07:24:09.175Z,858.73
2023-08-17T07:25:09.125Z,858.67
2023-08-17T07:26:10.263Z,858.68
2023-08-17T07:27:09.102Z,858.70
2023-08-17T07:28:09.090Z,858.69
2023-08-17T07:29:09.092Z,858.69
2023-08-17T07:30:09.074Z,858.74
2023-08-17T07:31:09.085Z,858.73
2023-08-17T07:32:09.091Z,858.65
2023-08-17T07:33:09.049Z,858.70
2023-08-17T07:34:09.034Z,858.64
2023-08-17T07:35:09.012Z,858.72
2023-08-17T07:36:09.004Z,858.68
2023-08-17T07:37:09.005Z,858.71
2023-08-17T07:38:09.799Z,858.71
2023-08-17T07:39:08.989Z,858.66
2023-08-17T07:40:08.989Z,858.63
2023-08-17T07:41:08.948Z,858.66
2023-08-17T07:42:08.977Z,858.70
2023-08-17T07:43:08.924Z,858.72
2023-08-17T07:44:08.945Z,858.71
2023-08-17T07:45:08.957Z,858.69
2023-08-17T07:46:08.940Z,858.69
2023-08-17T07:47:08.874Z,858.71
2023-08-17T07:48:08.909Z,858.73
2023-08-17T07:49:15.920Z,858.68
2023-08-17T07:50:09.853Z,858.68
2023-08-17T07:51:08.858Z,858.68
2023-08-17T07:52:08.823Z,858.74
2023-08-17T07:53:08.790Z,858.72
2023-08-17T07:54:08.806Z,858.72
2023-08-17T07:55:08.822Z,858.72
2023-08-17T07:56:08.828Z,858.74
2023-08-17T07:57:08.787Z,858.73
2023-08-17T07:58:08.761Z,858.71
2023-08-17T07:59:08.753Z,858.74
2023-08-17T08:00:08.746Z,858.75
2023-08-17T08:01:08.748Z,858.75
2023-08-17T08:02:08.740Z,858.75
2023-08-17T08:03:08.760Z,858.75
2023-08-17T08:04:08.719Z,858.76
2023-08-17T08:05:08.719Z,858.75
2023-08-17T08:06:08.673Z,858.75
2023-08-17T08:07:08.663Z,858.76
2023-08-17T08:08:08.655Z,858.74
2023-08-17T08:09:08.651Z,858.72
2023-08-17T08:10:08.628Z,858.77
2023-08-17T08:11:08.623Z,858.75
2023-08-17T08:12:08.638Z,858.74
2023-08-17T08:13:08.616Z,858.76
2023-08-17T08:14:08.632Z,858.75
2023-08-17T08:15:08.627Z,858.72
2023-08-17T08:16:08.636Z,858.75
2023-08-17T08:17:08.554Z,858.73
2023-08-17T08:18:08.567Z,858.77
2023-08-17T08:19:08.537Z,858.72
2023-08-17T08:20:08.539Z,858.75
2023-08-17T08:21:08.536Z,858.71
2023-08-17T08:22:08.496Z,858.70
2023-08-17T08:23:08.491Z,858.69
2023-08-17T08:24:17.807Z,858.72
2023-08-17T08:25:09.468Z,858.68
2023-08-17T08:26:08.498Z,858.69
2023-08-17T08:27:08.440Z,858.69
2023-08-17T08:28:08.469Z,858.67
2023-08-17T08:29:08.426Z,858.67
2023-08-17T08:30:08.426Z,858.69
2023-08-17T08:31:08.419Z,858.65
2023-08-17T08:32:08.394Z,858.67
2023-08-17T08:33:08.442Z,858.68
2023-08-17T08:34:08.364Z,858.70
2023-08-17T08:35:08.370Z,858.68
2023-08-17T08:36:08.349Z,858.70
2023-08-17T08:37:08.333Z,858.72
2023-08-17T08:38:08.322Z,858.67
2023-08-17T08:39:08.322Z,858.69
2023-08-17T08:40:08.300Z,858.71
2023-08-17T08:41:08.295Z,858.71
2023-08-17T08:42:08.279Z,858.76
2023-08-17T08:43:08.284Z,858.73
2023-08-17T08:44:08.307Z,858.73
2023-08-17T08:45:08.249Z,858.75
2023-08-17T08:46:08.288Z,858.73
2023-08-17T08:47:08.225Z,858.79
2023-08-17T08:48:08.279Z,858.80
2023-08-17T08:49:08.205Z,858.78
2023-08-17T08:50:08.231Z,858.78
2023-08-17T08:51:08.182Z,858.78
2023-08-17T08:52:08.168Z,858.81
2023-08-17T08:53:08.166Z,858.80
2023-08-17T08:54:08.148Z,858.81
2023-08-17T08:55:08.133Z,858.79
2023-08-17T08:56:08.146Z,858.82
2023-08-17T08:57:08.110Z,858.81
2023-08-17T08:58:08.099Z,858.81
2023-08-17T08:59:08.085Z,858.81
2023-08-17T09:00:08.119Z,858.86
2023-08-17T09:01:09.106Z,858.87
2023-08-17T09:02:13.664Z,858.82
2023-08-17T09:03:09.067Z,858.84
2023-08-17T09:04:08.037Z,858.79
2023-08-17T09:05:08.050Z,858.81
2023-08-17T09:06:08.031Z,858.82
2023-08-17T09:07:07.997Z,858.80
2023-08-17T09:08:08.009Z,858.79
2023-08-17T09:09:07.980Z,858.72
2023-08-17T09:10:07.988Z,858.74
2023-08-17T09:11:07.985Z,858.71
2023-08-17T09:12:07.957Z,858.72
2023-08-17T09:13:07.941Z,858.75
2023-08-17T09:14:07.932Z,858.72
2023-08-17T09:15:07.918Z,858.74
2023-08-17T09:16:08.337Z,858.74
2023-08-17T09:17:07.928Z,858.75
2023-08-17T09:18:09.039Z,858.72
2023-08-17T09:19:07.872Z,858.73
2023-08-17T09:20:07.884Z,858.71
2023-08-17T09:21:07.849Z,858.72
2023-08-17T09:22:07.840Z,858.69
2023-08-17T09:23:07.845Z,858.68
2023-08-17T09:24:07.815Z,858.66
2023-08-17T09:25:07.810Z,858.64
2023-08-17T09:26:07.853Z,858.63
2023-08-17T09:27:10.660Z,858.67
2023-08-17T09:29:08.808Z,858.66
2023-08-17T09:30:07.745Z,858.68
2023-08-17T09:31:07.839Z,858.67
2023-08-17T09:32:07.755Z,858.66
2023-08-17T09:33:07.777Z,858.61
2023-08-17T09:34:07.719Z,858.62
2023-08-17T09:35:07.703Z,858.59
2023-08-17T09:36:07.701Z,858.56
2023-08-17T09:37:07.680Z,858.58
2023-08-17T09:38:10.141Z,858.51
2023-08-17T09:39:07.666Z,858.49
2023-08-17T09:40:07.639Z,858.44
2023-08-17T09:41:07.639Z,858.45
2023-08-17T09:42:07.631Z,858.40
2023-08-17T09:43:07.646Z,858.46
2023-08-17T09:44:07.598Z,858.41
2023-08-17T09:45:07.597Z,858.39
2023-08-17T09:46:07.628Z,858.43
2023-08-17T09:47:07.581Z,858.41
2023-08-17T09:48:07.658Z,858.40
2023-08-17T09:49:07.560Z,858.41
2023-08-17T09:50:07.533Z,858.38
2023-08-17T09:51:07.544Z,858.44
2023-08-17T09:52:07.515Z,858.35
2023-08-17T09:53:07.504Z,858.41
2023-08-17T09:54:07.485Z,858.36
2023-08-17T09:55:08.881Z,858.29
2023-08-17T09:56:07.465Z,858.29
2023-08-17T09:57:07.461Z,858.28
2023-08-17T09:58:07.549Z,858.30
2023-08-17T09:59:07.453Z,858.27
2023-08-17T10:00:07.421Z,858.29
2023-08-17T10:01:07.447Z,858.26
2023-08-17T10:02:07.396Z,858.21
2023-08-17T10:03:07.967Z,858.20
2023-08-17T10:04:12.748Z,858.20
2023-08-17T10:05:08.429Z,858.16
2023-08-17T10:06:07.360Z,858.17
2023-08-17T10:07:07.342Z,858.15
2023-08-17T10:08:07.348Z,858.15
2023-08-17T10:09:07.327Z,858.12
2023-08-17T10:10:07.331Z,858.14
2023-08-17T10:11:07.319Z,858.14
2023-08-17T10:12:07.312Z,858.12
2023-08-17T10:13:07.315Z,858.14
2023-08-17T10:14:11.886Z,858.11
2023-08-17T10:15:08.266Z,858.16
2023-08-17T10:16:07.312Z,858.14
2023-08-17T10:17:07.245Z,858.12
2023-08-17T10:18:07.250Z,858.09
2023-08-17T10:19:07.218Z,858.11
2023-08-17T10:20:07.276Z,858.09
2023-08-17T10:21:07.198Z,858.05
2023-08-17T10:22:07.195Z,858.01
2023-08-17T10:23:07.176Z,858.01
2023-08-17T10:24:07.172Z,858.01
2023-08-17T10:25:07.153Z,858.02
2023-08-17T10:26:07.193Z,858.00
2023-08-17T10:27:07.127Z,858.02
2023-08-17T10:28:07.125Z,857.98
2023-08-17T10:30:09.649Z,858.02
2023-08-17T10:31:11.657Z,857.98
2023-08-17T10:32:07.111Z,858.02
2023-08-17T10:33:07.120Z,858.00
2023-08-17T10:34:07.065Z,858.01
2023-08-17T10:35:07.065Z,857.98
2023-08-17T10:36:07.049Z,857.98
2023-08-17T10:37:07.021Z,857.94
2023-08-17T10:38:10.548Z,857.98
2023-08-17T10:40:08.039Z,857.93
2023-08-17T10:41:06.970Z,857.92
2023-08-17T10:42:06.957Z,857.90
2023-08-17T10:43:06.945Z,857.94
2023-08-17T10:44:06.972Z,857.92
2023-08-17T10:45:06.925Z,857.96
2023-08-17T10:46:06.953Z,857.90
2023-08-17T10:47:06.911Z,857.89
2023-08-17T10:48:06.967Z,857.86
2023-08-17T10:49:06.887Z,857.85
2023-08-17T10:50:06.891Z,857.79
2023-08-17T10:51:06.869Z,857.81
2023-08-17T10:52:06.902Z,857.77
2023-08-17T10:53:06.841Z,857.80
2023-08-17T10:54:06.831Z,857.77
2023-08-17T10:55:06.847Z,857.76
2023-08-17T10:56:06.824Z,857.76
2023-08-17T10:57:09.747Z,857.72
2023-08-17T10:58:06.812Z,857.75
2023-08-17T10:59:06.787Z,857.73
2023-08-17T11:00:06.778Z,857.67
2023-08-17T11:01:06.787Z,857.72
2023-08-17T11:02:06.758Z,857.69
2023-08-17T11:03:06.857Z,857.66
2023-08-17T11:04:06.721Z,857.68
2023-08-17T11:05:06.786Z,857.65
2023-08-17T11:06:06.696Z,857.58
2023-08-17T11:07:06.718Z,857.54
2023-08-17T11:08:06.705Z,857.62
2023-08-17T11:09:06.697Z,857.63
2023-08-17T11:10:06.767Z,857.60
2023-08-17T11:11:06.647Z,857.56
2023-08-17T11:12:06.631Z,857.52
2023-08-17T11:13:06.630Z,857.52
2023-08-17T11:14:06.631Z,857.54
2023-08-17T11:15:06.597Z,857.51
2023-08-17T11:16:06.757Z,857.47
2023-08-17T11:17:06.904Z,857.47
2023-08-17T11:18:09.918Z,857.51
2023-08-17T11:19:06.570Z,857.52
2023-08-17T11:20:06.545Z,857.50
2023-08-17T11:21:06.541Z,857.48
2023-08-17T11:22:06.530Z,857.46
2023-08-17T11:23:06.535Z,857.47
2023-08-17T11:24:06.577Z,857.43
2023-08-17T11:25:06.502Z,857.42
2023-08-17T11:26:06.467Z,857.44
2023-08-17T11:27:06.463Z,857.41
2023-08-17T11:28:06.457Z,857.39
2023-08-17T11:29:06.461Z,857.41
2023-08-17T11:30:06.434Z,857.45
2023-08-17T11:31:06.419Z,857.40
2023-08-17T11:32:06.453Z,857.39
2023-08-17T11:33:06.432Z,857.42
2023-08-17T11:34:06.383Z,857.36
2023-08-17T11:35:06.408Z,857.35
2023-08-17T11:36:06.369Z,857.33
2023-08-17T11:37:06.374Z,857.31
2023-08-17T11:38:08.042Z,857.26
2023-08-17T11:39:10.530Z,857.26
2023-08-17T11:40:06.407Z,857.26
2023-08-17T11:41:06.318Z,857.26
2023-08-17T11:42:06.300Z,857.21
2023-08-17T11:43:06.299Z,857.24
2023-08-17T11:44:06.279Z,857.19
2023-08-17T11:45:06.271Z,857.20
2023-08-17T11:46:06.492Z,857.21
2023-08-17T11:47:06.247Z,857.21
2023-08-17T11:48:06.261Z,857.23
2023-08-17T11:49:06.226Z,857.21
2023-08-17T11:50:18.690Z,857.25
2023-08-17T11:51:07.212Z,857.19
2023-08-17T11:52:06.193Z,857.21
2023-08-17T11:53:06.185Z,857.23
2023-08-17T11:54:06.184Z,857.16
2023-08-17T11:55:06.162Z,857.19
2023-08-17T11:56:09.465Z,857.16
2023-08-17T11:57:06.137Z,857.13
2023-08-17T11:58:09.889Z,857.16
2023-08-17T11:59:06.118Z,857.14
2023-08-17T12:00:06.118Z,857.14
2023-08-17T12:01:06.151Z,857.16
2023-08-17T12:02:06.099Z,857.12
2023-08-17T12:03:06.133Z,857.13
2023-08-17T12:04:06.133Z,857.19
2023-08-17T12:05:06.077Z,857.18
2023-08-17T12:06:06.066Z,857.20
2023-08-17T12:07:06.065Z,857.15
2023-08-17T12:08:06.017Z,857.14
2023-08-17T12:09:06.015Z,857.13
2023-08-17T12:10:05.997Z,857.23
2023-08-17T12:11:06.017Z,857.19
2023-08-17T12:12:06.007Z,857.25
2023-08-17T12:13:06.015Z,857.26
2023-08-17T12:14:05.958Z,857.30
2023-08-17T12:15:05.947Z,857.36
2023-08-17T12:16:06.013Z,857.38
2023-08-17T12:17:05.959Z,857.40
2023-08-17T12:18:05.942Z,857.40
2023-08-17T12:19:05.920Z,857.42
2023-08-17T12:20:05.884Z,857.39
2023-08-17T12:21:05.875Z,857.36
2023-08-17T12:22:05.875Z,857.39
2023-08-17T12:23:05.861Z,857.40
2023-08-17T12:24:05.875Z,857.46
2023-08-17T12:25:05.847Z,857.49
2023-08-17T12:26:05.868Z,857.47
2023-08-17T12:27:05.815Z,857.47
2023-08-17T12:28:05.825Z,857.52
2023-08-17T12:29:05.788Z,857.56
2023-08-17T12:30:05.793Z,857.58
2023-08-17T12:31:05.861Z,857.59
2023-08-17T12:32:05.755Z,857.55